sensor_id;sensor_type;location;lat;lon;timestamp;P1;durP1;ratioP1;P2;durP2;ratioP2
24873;SDS011;12945;42.648;23.370;2023-03-19T00:00:39;32.88;;;16.15;;
24873;SDS011;12945;42.648;23.370;2023-03-19T00:03:04;33.17;;;15.30;;
24873;SDS011;12945;42.648;23.370;2023-03-19T00:05:30;37.00;;;16.52;;
24873;SDS011;12945;42.648;23.370;2023-03-19T00:07:55;31.27;;;16.40;;
24873;SDS011;12945;42.648;23.370;2023-03-19T00:10:20;31.10;;;16.23;;
24873;SDS011;12945;42.648;23.370;2023-03-19T00:12:46;33.78;;;16.95;;
24873;SDS011;12945;42.648;23.370;2023-03-19T00:15:11;32.78;;;16.33;;
24873;SDS011;12945;42.648;23.370;2023-03-19T00:17:38;37.20;;;16.73;;
24873;SDS011;12945;42.648;23.370;2023-03-19T00:20:03;37.75;;;16.40;;
24873;SDS011;12945;42.648;23.370;2023-03-19T00:22:29;32.47;;;16.25;;
24873;SDS011;12945;42.648;23.370;2023-03-19T00:24:54;39.25;;;17.08;;
24873;SDS011;12945;42.648;23.370;2023-03-19T00:27:19;40.30;;;20.48;;
24873;SDS011;12945;42.648;23.370;2023-03-19T00:29:44;36.30;;;17.33;;
24873;SDS011;12945;42.648;23.370;2023-03-19T00:32:09;37.55;;;16.60;;
24873;SDS011;12945;42.648;23.370;2023-03-19T00:34:35;30.60;;;14.77;;
24873;SDS011;12945;42.648;23.370;2023-03-19T00:37:01;30.05;;;15.13;;
24873;SDS011;12945;42.648;23.370;2023-03-19T00:39:26;29.70;;;12.77;;
24873;SDS011;12945;42.648;23.370;2023-03-19T00:41:51;20.90;;;11.15;;
24873;SDS011;12945;42.648;23.370;2023-03-19T00:44:17;19.88;;;10.50;;
24873;SDS011;12945;42.648;23.370;2023-03-19T00:46:43;22.67;;;11.05;;
24873;SDS011;12945;42.648;23.370;2023-03-19T00:49:08;21.85;;;11.38;;
24873;SDS011;12945;42.648;23.370;2023-03-19T00:51:33;22.33;;;11.32;;
24873;SDS011;12945;42.648;23.370;2023-03-19T00:53:59;20.40;;;11.65;;
24873;SDS011;12945;42.648;23.370;2023-03-19T00:56:24;25.67;;;12.57;;
24873;SDS011;12945;42.648;23.370;2023-03-19T00:58:50;26.25;;;12.32;;
24873;SDS011;12945;42.648;23.370;2023-03-19T01:01:16;28.75;;;13.25;;
24873;SDS011;12945;42.648;23.370;2023-03-19T01:03:42;30.95;;;13.93;;
24873;SDS011;12945;42.648;23.370;2023-03-19T01:06:07;31.92;;;14.02;;
24873;SDS011;12945;42.648;23.370;2023-03-19T01:08:33;28.52;;;13.63;;
24873;SDS011;12945;42.648;23.370;2023-03-19T01:11:05;23.38;;;12.73;;
24873;SDS011;12945;42.648;23.370;2023-03-19T01:13:31;27.75;;;13.23;;
24873;SDS011;12945;42.648;23.370;2023-03-19T01:15:56;28.40;;;13.85;;
24873;SDS011;12945;42.648;23.370;2023-03-19T01:18:21;29.92;;;13.82;;
24873;SDS011;12945;42.648;23.370;2023-03-19T01:20:47;31.20;;;14.85;;
24873;SDS011;12945;42.648;23.370;2023-03-19T01:23:12;29.38;;;14.52;;
24873;SDS011;12945;42.648;23.370;2023-03-19T01:25:37;33.40;;;15.00;;
24873;SDS011;12945;42.648;23.370;2023-03-19T01:28:03;28.67;;;14.65;;
24873;SDS011;12945;42.648;23.370;2023-03-19T01:30:28;25.92;;;14.43;;
24873;SDS011;12945;42.648;23.370;2023-03-19T01:32:53;28.95;;;14.38;;
24873;SDS011;12945;42.648;23.370;2023-03-19T01:35:18;31.08;;;14.25;;
24873;SDS011;12945;42.648;23.370;2023-03-19T01:37:44;27.58;;;13.77;;
24873;SDS011;12945;42.648;23.370;2023-03-19T01:40:11;29.40;;;14.75;;
24873;SDS011;12945;42.648;23.370;2023-03-19T01:45:35;31.85;;;14.38;;
24873;SDS011;12945;42.648;23.370;2023-03-19T01:48:01;30.42;;;14.75;;
24873;SDS011;12945;42.648;23.370;2023-03-19T01:50:28;35.83;;;14.70;;
24873;SDS011;12945;42.648;23.370;2023-03-19T01:52:55;27.70;;;13.85;;
24873;SDS011;12945;42.648;23.370;2023-03-19T01:55:21;29.77;;;14.07;;
24873;SDS011;12945;42.648;23.370;2023-03-19T01:57:46;29.85;;;14.07;;
24873;SDS011;12945;42.648;23.370;2023-03-19T02:00:12;30.40;;;13.63;;
24873;SDS011;12945;42.648;23.370;2023-03-19T02:02:38;36.05;;;13.65;;
24873;SDS011;12945;42.648;23.370;2023-03-19T02:05:12;27.25;;;13.02;;
24873;SDS011;12945;42.648;23.370;2023-03-19T02:07:38;28.25;;;12.23;;
24873;SDS011;12945;42.648;23.370;2023-03-19T02:10:06;25.90;;;12.85;;
24873;SDS011;12945;42.648;23.370;2023-03-19T02:12:33;28.42;;;13.18;;
24873;SDS011;12945;42.648;23.370;2023-03-19T02:14:58;28.40;;;13.10;;
24873;SDS011;12945;42.648;23.370;2023-03-19T02:17:23;28.25;;;12.57;;
24873;SDS011;12945;42.648;23.370;2023-03-19T02:19:53;28.27;;;12.98;;
24873;SDS011;12945;42.648;23.370;2023-03-19T02:22:21;27.17;;;12.02;;
24873;SDS011;12945;42.648;23.370;2023-03-19T02:24:49;27.63;;;12.55;;
24873;SDS011;12945;42.648;23.370;2023-03-19T02:27:16;27.60;;;12.65;;
24873;SDS011;12945;42.648;23.370;2023-03-19T02:29:41;28.02;;;13.70;;
24873;SDS011;12945;42.648;23.370;2023-03-19T02:32:06;26.63;;;13.15;;
24873;SDS011;12945;42.648;23.370;2023-03-19T02:34:33;25.05;;;12.20;;
24873;SDS011;12945;42.648;23.370;2023-03-19T02:36:59;27.10;;;13.30;;
24873;SDS011;12945;42.648;23.370;2023-03-19T02:39:30;33.97;;;12.57;;
24873;SDS011;12945;42.648;23.370;2023-03-19T02:41:56;24.42;;;10.70;;
24873;SDS011;12945;42.648;23.370;2023-03-19T02:44:22;17.90;;;9.13;;
24873;SDS011;12945;42.648;23.370;2023-03-19T02:46:47;18.60;;;9.32;;
24873;SDS011;12945;42.648;23.370;2023-03-19T02:49:13;20.10;;;8.77;;
24873;SDS011;12945;42.648;23.370;2023-03-19T02:51:39;18.88;;;8.75;;
24873;SDS011;12945;42.648;23.370;2023-03-19T02:54:05;18.02;;;9.20;;
24873;SDS011;12945;42.648;23.370;2023-03-19T02:56:31;25.15;;;8.65;;
24873;SDS011;12945;42.648;23.370;2023-03-19T02:58:56;23.35;;;11.13;;
24873;SDS011;12945;42.648;23.370;2023-03-19T03:01:21;22.70;;;11.52;;
24873;SDS011;12945;42.648;23.370;2023-03-19T03:03:47;22.27;;;10.57;;
24873;SDS011;12945;42.648;23.370;2023-03-19T03:06:12;24.17;;;10.68;;
24873;SDS011;12945;42.648;23.370;2023-03-19T03:08:38;28.15;;;10.38;;
24873;SDS011;12945;42.648;23.370;2023-03-19T03:11:03;22.63;;;10.88;;
24873;SDS011;12945;42.648;23.370;2023-03-19T03:13:28;21.92;;;11.15;;
24873;SDS011;12945;42.648;23.370;2023-03-19T03:15:54;18.95;;;9.23;;
24873;SDS011;12945;42.648;23.370;2023-03-19T03:18:19;17.50;;;9.25;;
24873;SDS011;12945;42.648;23.370;2023-03-19T03:20:44;19.90;;;9.98;;
24873;SDS011;12945;42.648;23.370;2023-03-19T03:23:09;22.85;;;10.50;;
24873;SDS011;12945;42.648;23.370;2023-03-19T03:25:35;22.40;;;10.85;;
24873;SDS011;12945;42.648;23.370;2023-03-19T03:28:00;20.77;;;10.57;;
24873;SDS011;12945;42.648;23.370;2023-03-19T03:30:25;22.27;;;11.70;;
24873;SDS011;12945;42.648;23.370;2023-03-19T03:32:51;27.95;;;12.90;;
24873;SDS011;12945;42.648;23.370;2023-03-19T03:35:16;34.97;;;16.00;;
24873;SDS011;12945;42.648;23.370;2023-03-19T03:37:46;31.95;;;14.68;;
24873;SDS011;12945;42.648;23.370;2023-03-19T03:40:11;37.05;;;15.82;;
24873;SDS011;12945;42.648;23.370;2023-03-19T03:42:38;37.60;;;16.60;;
24873;SDS011;12945;42.648;23.370;2023-03-19T03:45:03;40.92;;;17.95;;
24873;SDS011;12945;42.648;23.370;2023-03-19T03:47:29;32.67;;;16.48;;
24873;SDS011;12945;42.648;23.370;2023-03-19T03:49:54;36.22;;;16.52;;
24873;SDS011;12945;42.648;23.370;2023-03-19T03:52:19;39.65;;;17.80;;
24873;SDS011;12945;42.648;23.370;2023-03-19T03:54:45;33.92;;;16.63;;
24873;SDS011;12945;42.648;23.370;2023-03-19T03:57:10;34.33;;;17.15;;
24873;SDS011;12945;42.648;23.370;2023-03-19T03:59:36;33.08;;;16.65;;
24873;SDS011;12945;42.648;23.370;2023-03-19T04:02:01;34.85;;;16.20;;
24873;SDS011;12945;42.648;23.370;2023-03-19T04:04:27;32.25;;;15.65;;
24873;SDS011;12945;42.648;23.370;2023-03-19T04:06:53;39.63;;;16.50;;
24873;SDS011;12945;42.648;23.370;2023-03-19T04:09:18;39.08;;;17.55;;
24873;SDS011;12945;42.648;23.370;2023-03-19T04:11:44;37.00;;;16.58;;
24873;SDS011;12945;42.648;23.370;2023-03-19T04:14:09;37.03;;;16.75;;
24873;SDS011;12945;42.648;23.370;2023-03-19T04:16:34;34.35;;;16.15;;
24873;SDS011;12945;42.648;23.370;2023-03-19T04:19:00;34.70;;;15.82;;
24873;SDS011;12945;42.648;23.370;2023-03-19T04:21:25;36.53;;;15.88;;
24873;SDS011;12945;42.648;23.370;2023-03-19T04:23:50;31.30;;;15.23;;
24873;SDS011;12945;42.648;23.370;2023-03-19T04:26:15;34.00;;;15.00;;
24873;SDS011;12945;42.648;23.370;2023-03-19T04:28:41;30.30;;;14.40;;
24873;SDS011;12945;42.648;23.370;2023-03-19T04:31:06;32.15;;;15.52;;
24873;SDS011;12945;42.648;23.370;2023-03-19T04:33:32;27.75;;;14.77;;
24873;SDS011;12945;42.648;23.370;2023-03-19T04:35:57;32.55;;;16.10;;
24873;SDS011;12945;42.648;23.370;2023-03-19T04:38:23;34.53;;;17.05;;
24873;SDS011;12945;42.648;23.370;2023-03-19T04:40:52;34.92;;;15.98;;
24873;SDS011;12945;42.648;23.370;2023-03-19T04:43:18;39.40;;;17.05;;
24873;SDS011;12945;42.648;23.370;2023-03-19T04:45:43;33.42;;;17.40;;
24873;SDS011;12945;42.648;23.370;2023-03-19T04:48:09;38.55;;;16.70;;
24873;SDS011;12945;42.648;23.370;2023-03-19T04:50:35;27.50;;;12.65;;
24873;SDS011;12945;42.648;23.370;2023-03-19T04:53:00;21.90;;;10.63;;
24873;SDS011;12945;42.648;23.370;2023-03-19T04:55:26;20.20;;;11.55;;
24873;SDS011;12945;42.648;23.370;2023-03-19T04:57:52;26.83;;;13.40;;
24873;SDS011;12945;42.648;23.370;2023-03-19T05:00:17;29.88;;;14.07;;
24873;SDS011;12945;42.648;23.370;2023-03-19T05:02:42;29.63;;;14.25;;
24873;SDS011;12945;42.648;23.370;2023-03-19T05:05:08;32.17;;;13.68;;
24873;SDS011;12945;42.648;23.370;2023-03-19T05:07:35;20.00;;;10.50;;
24873;SDS011;12945;42.648;23.370;2023-03-19T05:10:01;16.13;;;7.72;;
24873;SDS011;12945;42.648;23.370;2023-03-19T05:12:26;17.98;;;7.22;;
24873;SDS011;12945;42.648;23.370;2023-03-19T05:14:52;17.65;;;7.07;;
24873;SDS011;12945;42.648;23.370;2023-03-19T05:17:17;15.13;;;7.57;;
24873;SDS011;12945;42.648;23.370;2023-03-19T05:19:42;13.40;;;7.07;;
24873;SDS011;12945;42.648;23.370;2023-03-19T05:22:08;12.13;;;6.53;;
24873;SDS011;12945;42.648;23.370;2023-03-19T05:24:33;14.93;;;7.30;;
24873;SDS011;12945;42.648;23.370;2023-03-19T05:26:59;14.90;;;6.90;;
24873;SDS011;12945;42.648;23.370;2023-03-19T05:29:24;14.30;;;7.43;;
24873;SDS011;12945;42.648;23.370;2023-03-19T05:31:50;16.02;;;8.57;;
24873;SDS011;12945;42.648;23.370;2023-03-19T05:34:16;10.95;;;7.20;;
24873;SDS011;12945;42.648;23.370;2023-03-19T05:36:41;14.95;;;7.95;;
24873;SDS011;12945;42.648;23.370;2023-03-19T05:39:06;14.73;;;6.88;;
24873;SDS011;12945;42.648;23.370;2023-03-19T05:41:32;17.70;;;9.85;;
24873;SDS011;12945;42.648;23.370;2023-03-19T05:43:57;21.83;;;9.65;;
24873;SDS011;12945;42.648;23.370;2023-03-19T05:46:22;16.25;;;9.27;;
24873;SDS011;12945;42.648;23.370;2023-03-19T05:48:48;19.67;;;10.50;;
24873;SDS011;12945;42.648;23.370;2023-03-19T05:51:14;23.85;;;10.30;;
24873;SDS011;12945;42.648;23.370;2023-03-19T05:53:39;22.17;;;10.88;;
24873;SDS011;12945;42.648;23.370;2023-03-19T05:56:05;24.85;;;10.77;;
24873;SDS011;12945;42.648;23.370;2023-03-19T05:58:30;19.38;;;10.43;;
24873;SDS011;12945;42.648;23.370;2023-03-19T06:00:56;18.30;;;10.65;;
24873;SDS011;12945;42.648;23.370;2023-03-19T06:03:22;17.40;;;10.20;;
24873;SDS011;12945;42.648;23.370;2023-03-19T06:05:48;22.65;;;11.18;;
24873;SDS011;12945;42.648;23.370;2023-03-19T06:08:13;20.00;;;10.43;;
24873;SDS011;12945;42.648;23.370;2023-03-19T06:10:38;17.85;;;11.27;;
24873;SDS011;12945;42.648;23.370;2023-03-19T06:13:03;17.10;;;10.23;;
24873;SDS011;12945;42.648;23.370;2023-03-19T06:15:29;18.55;;;10.48;;
24873;SDS011;12945;42.648;23.370;2023-03-19T06:17:55;20.83;;;11.27;;
24873;SDS011;12945;42.648;23.370;2023-03-19T06:20:20;20.10;;;10.95;;
24873;SDS011;12945;42.648;23.370;2023-03-19T06:22:45;19.50;;;10.55;;
24873;SDS011;12945;42.648;23.370;2023-03-19T06:25:11;30.85;;;11.57;;
24873;SDS011;12945;42.648;23.370;2023-03-19T06:27:36;21.38;;;11.73;;
24873;SDS011;12945;42.648;23.370;2023-03-19T06:30:02;23.30;;;11.50;;
24873;SDS011;12945;42.648;23.370;2023-03-19T06:32:28;23.23;;;12.50;;
24873;SDS011;12945;42.648;23.370;2023-03-19T06:34:53;23.27;;;11.43;;
24873;SDS011;12945;42.648;23.370;2023-03-19T06:37:20;27.75;;;12.30;;
24873;SDS011;12945;42.648;23.370;2023-03-19T06:39:45;19.48;;;11.75;;
24873;SDS011;12945;42.648;23.370;2023-03-19T06:42:11;21.80;;;11.35;;
24873;SDS011;12945;42.648;23.370;2023-03-19T06:44:37;29.85;;;11.82;;
24873;SDS011;12945;42.648;23.370;2023-03-19T06:47:02;20.95;;;11.73;;
24873;SDS011;12945;42.648;23.370;2023-03-19T06:49:27;21.08;;;11.32;;
24873;SDS011;12945;42.648;23.370;2023-03-19T06:51:53;19.75;;;9.40;;
24873;SDS011;12945;42.648;23.370;2023-03-19T06:54:18;22.38;;;10.52;;
24873;SDS011;12945;42.648;23.370;2023-03-19T06:56:44;21.95;;;11.02;;
24873;SDS011;12945;42.648;23.370;2023-03-19T06:59:10;20.83;;;10.75;;
24873;SDS011;12945;42.648;23.370;2023-03-19T07:01:37;17.92;;;10.30;;
24873;SDS011;12945;42.648;23.370;2023-03-19T07:04:02;18.17;;;10.85;;
24873;SDS011;12945;42.648;23.370;2023-03-19T07:06:28;19.73;;;11.02;;
24873;SDS011;12945;42.648;23.370;2023-03-19T07:08:54;18.48;;;9.90;;
24873;SDS011;12945;42.648;23.370;2023-03-19T07:11:20;17.02;;;9.68;;
24873;SDS011;12945;42.648;23.370;2023-03-19T07:13:45;20.05;;;9.85;;
24873;SDS011;12945;42.648;23.370;2023-03-19T07:16:11;19.35;;;10.43;;
24873;SDS011;12945;42.648;23.370;2023-03-19T07:18:36;23.75;;;10.63;;
24873;SDS011;12945;42.648;23.370;2023-03-19T07:21:02;16.05;;;9.48;;
24873;SDS011;12945;42.648;23.370;2023-03-19T07:23:27;20.35;;;9.30;;
24873;SDS011;12945;42.648;23.370;2023-03-19T07:25:53;15.02;;;9.35;;
24873;SDS011;12945;42.648;23.370;2023-03-19T07:28:18;16.95;;;10.20;;
24873;SDS011;12945;42.648;23.370;2023-03-19T07:30:43;23.80;;;10.93;;
24873;SDS011;12945;42.648;23.370;2023-03-19T07:33:09;20.83;;;10.45;;
24873;SDS011;12945;42.648;23.370;2023-03-19T07:35:34;18.08;;;11.30;;
24873;SDS011;12945;42.648;23.370;2023-03-19T07:38:00;16.83;;;9.55;;
24873;SDS011;12945;42.648;23.370;2023-03-19T07:40:26;18.23;;;10.68;;
24873;SDS011;12945;42.648;23.370;2023-03-19T07:42:52;21.65;;;10.55;;
24873;SDS011;12945;42.648;23.370;2023-03-19T07:45:17;17.55;;;10.18;;
24873;SDS011;12945;42.648;23.370;2023-03-19T07:47:42;14.65;;;9.48;;
24873;SDS011;12945;42.648;23.370;2023-03-19T07:50:08;22.33;;;10.43;;
24873;SDS011;12945;42.648;23.370;2023-03-19T07:52:33;19.95;;;9.60;;
24873;SDS011;12945;42.648;23.370;2023-03-19T07:54:59;20.92;;;10.80;;
24873;SDS011;12945;42.648;23.370;2023-03-19T07:57:25;17.75;;;9.70;;
24873;SDS011;12945;42.648;23.370;2023-03-19T07:59:51;15.38;;;9.38;;
24873;SDS011;12945;42.648;23.370;2023-03-19T08:02:16;21.77;;;11.65;;
24873;SDS011;12945;42.648;23.370;2023-03-19T08:04:42;19.25;;;11.07;;
24873;SDS011;12945;42.648;23.370;2023-03-19T08:07:07;20.65;;;11.18;;
24873;SDS011;12945;42.648;23.370;2023-03-19T08:09:36;23.63;;;11.63;;
24873;SDS011;12945;42.648;23.370;2023-03-19T08:12:02;16.35;;;10.32;;
24873;SDS011;12945;42.648;23.370;2023-03-19T08:14:27;19.67;;;11.48;;
24873;SDS011;12945;42.648;23.370;2023-03-19T08:16:52;17.33;;;10.73;;
24873;SDS011;12945;42.648;23.370;2023-03-19T08:19:18;17.75;;;10.43;;
24873;SDS011;12945;42.648;23.370;2023-03-19T08:21:43;24.00;;;12.40;;
24873;SDS011;12945;42.648;23.370;2023-03-19T08:24:08;19.15;;;10.88;;
24873;SDS011;12945;42.648;23.370;2023-03-19T08:26:34;26.40;;;11.43;;
24873;SDS011;12945;42.648;23.370;2023-03-19T08:28:59;22.08;;;11.32;;
24873;SDS011;12945;42.648;23.370;2023-03-19T08:31:25;20.35;;;11.13;;
24873;SDS011;12945;42.648;23.370;2023-03-19T08:33:50;20.58;;;10.82;;
24873;SDS011;12945;42.648;23.370;2023-03-19T08:36:16;22.38;;;11.20;;
24873;SDS011;12945;42.648;23.370;2023-03-19T08:38:41;17.38;;;10.10;;
24873;SDS011;12945;42.648;23.370;2023-03-19T08:41:07;18.42;;;10.90;;
24873;SDS011;12945;42.648;23.370;2023-03-19T08:43:33;18.95;;;10.55;;
24873;SDS011;12945;42.648;23.370;2023-03-19T08:45:59;18.40;;;10.65;;
24873;SDS011;12945;42.648;23.370;2023-03-19T08:48:25;17.63;;;9.88;;
24873;SDS011;12945;42.648;23.370;2023-03-19T08:50:54;15.68;;;9.43;;
24873;SDS011;12945;42.648;23.370;2023-03-19T08:53:20;14.05;;;9.50;;
24873;SDS011;12945;42.648;23.370;2023-03-19T08:55:50;17.77;;;9.52;;
24873;SDS011;12945;42.648;23.370;2023-03-19T08:58:15;14.20;;;8.45;;
24873;SDS011;12945;42.648;23.370;2023-03-19T09:00:40;15.10;;;8.80;;
24873;SDS011;12945;42.648;23.370;2023-03-19T09:03:05;14.52;;;8.20;;
24873;SDS011;12945;42.648;23.370;2023-03-19T09:05:31;11.60;;;7.47;;
24873;SDS011;12945;42.648;23.370;2023-03-19T09:07:56;14.80;;;8.32;;
24873;SDS011;12945;42.648;23.370;2023-03-19T09:10:21;14.50;;;8.88;;
24873;SDS011;12945;42.648;23.370;2023-03-19T09:12:47;17.42;;;8.45;;
24873;SDS011;12945;42.648;23.370;2023-03-19T09:15:12;13.35;;;7.63;;
24873;SDS011;12945;42.648;23.370;2023-03-19T09:17:37;13.07;;;7.50;;
24873;SDS011;12945;42.648;23.370;2023-03-19T09:20:03;13.18;;;8.20;;
24873;SDS011;12945;42.648;23.370;2023-03-19T09:22:30;13.23;;;7.75;;
24873;SDS011;12945;42.648;23.370;2023-03-19T09:24:55;12.25;;;7.60;;
24873;SDS011;12945;42.648;23.370;2023-03-19T09:27:20;15.80;;;7.65;;
24873;SDS011;12945;42.648;23.370;2023-03-19T09:29:46;18.52;;;8.65;;
24873;SDS011;12945;42.648;23.370;2023-03-19T09:32:11;18.38;;;9.32;;
24873;SDS011;12945;42.648;23.370;2023-03-19T09:34:37;14.80;;;9.25;;
24873;SDS011;12945;42.648;23.370;2023-03-19T09:37:02;17.02;;;9.93;;
24873;SDS011;12945;42.648;23.370;2023-03-19T09:39:28;15.10;;;9.82;;
24873;SDS011;12945;42.648;23.370;2023-03-19T09:44:28;22.58;;;10.18;;
24873;SDS011;12945;42.648;23.370;2023-03-19T09:46:59;16.92;;;9.82;;
24873;SDS011;12945;42.648;23.370;2023-03-19T09:49:27;18.85;;;10.25;;
24873;SDS011;12945;42.648;23.370;2023-03-19T09:54:27;15.50;;;10.10;;
24873;SDS011;12945;42.648;23.370;2023-03-19T09:56:53;16.90;;;10.27;;
24873;SDS011;12945;42.648;23.370;2023-03-19T09:59:23;14.68;;;9.48;;
24873;SDS011;12945;42.648;23.370;2023-03-19T10:01:56;16.65;;;10.77;;
24873;SDS011;12945;42.648;23.370;2023-03-19T10:06:48;13.38;;;9.55;;
24873;SDS011;12945;42.648;23.370;2023-03-19T10:12:13;21.80;;;10.80;;
24873;SDS011;12945;42.648;23.370;2023-03-19T10:14:54;23.95;;;9.90;;
24873;SDS011;12945;42.648;23.370;2023-03-19T10:18:06;16.40;;;9.90;;
24873;SDS011;12945;42.648;23.370;2023-03-19T10:20:16;15.65;;;9.45;;
24873;SDS011;12945;42.648;23.370;2023-03-19T10:22:44;12.73;;;8.68;;
24873;SDS011;12945;42.648;23.370;2023-03-19T10:25:17;13.70;;;8.13;;
24873;SDS011;12945;42.648;23.370;2023-03-19T10:27:44;17.60;;;9.25;;
24873;SDS011;12945;42.648;23.370;2023-03-19T10:30:11;17.65;;;8.60;;
24873;SDS011;12945;42.648;23.370;2023-03-19T10:32:39;16.13;;;9.35;;
24873;SDS011;12945;42.648;23.370;2023-03-19T10:35:07;13.57;;;8.75;;
24873;SDS011;12945;42.648;23.370;2023-03-19T10:37:34;14.35;;;8.70;;
24873;SDS011;12945;42.648;23.370;2023-03-19T10:40:00;16.17;;;7.65;;
24873;SDS011;12945;42.648;23.370;2023-03-19T10:44:59;13.95;;;8.23;;
24873;SDS011;12945;42.648;23.370;2023-03-19T10:47:26;10.63;;;7.72;;
24873;SDS011;12945;42.648;23.370;2023-03-19T10:49:52;13.35;;;8.52;;
24873;SDS011;12945;42.648;23.370;2023-03-19T10:52:21;16.52;;;8.05;;
24873;SDS011;12945;42.648;23.370;2023-03-19T10:54:48;11.90;;;8.25;;
24873;SDS011;12945;42.648;23.370;2023-03-19T10:57:25;12.25;;;7.47;;
24873;SDS011;12945;42.648;23.370;2023-03-19T10:59:51;17.48;;;9.07;;
24873;SDS011;12945;42.648;23.370;2023-03-19T11:02:17;13.30;;;8.52;;
24873;SDS011;12945;42.648;23.370;2023-03-19T11:04:44;15.00;;;8.43;;
24873;SDS011;12945;42.648;23.370;2023-03-19T11:07:16;14.32;;;7.72;;
24873;SDS011;12945;42.648;23.370;2023-03-19T11:09:43;23.08;;;9.02;;
24873;SDS011;12945;42.648;23.370;2023-03-19T11:15:31;15.93;;;8.52;;
24873;SDS011;12945;42.648;23.370;2023-03-19T11:17:37;11.25;;;7.38;;
24873;SDS011;12945;42.648;23.370;2023-03-19T11:22:35;11.35;;;7.68;;
24873;SDS011;12945;42.648;23.370;2023-03-19T11:25:13;11.57;;;7.25;;
24873;SDS011;12945;42.648;23.370;2023-03-19T11:27:38;11.68;;;8.07;;
24873;SDS011;12945;42.648;23.370;2023-03-19T11:30:16;14.55;;;8.75;;
24873;SDS011;12945;42.648;23.370;2023-03-19T11:35:20;10.13;;;7.00;;
24873;SDS011;12945;42.648;23.370;2023-03-19T11:37:53;13.88;;;8.00;;
24873;SDS011;12945;42.648;23.370;2023-03-19T11:40:30;10.90;;;7.50;;
24873;SDS011;12945;42.648;23.370;2023-03-19T11:45:39;15.55;;;7.70;;
24873;SDS011;12945;42.648;23.370;2023-03-19T12:00:55;14.77;;;7.22;;
24873;SDS011;12945;42.648;23.370;2023-03-19T12:05:59;13.43;;;6.93;;
24873;SDS011;12945;42.648;23.370;2023-03-19T12:11:12;15.57;;;7.43;;
24873;SDS011;12945;42.648;23.370;2023-03-19T12:16:25;14.27;;;6.95;;
24873;SDS011;12945;42.648;23.370;2023-03-19T12:21:49;11.45;;;7.13;;
24873;SDS011;12945;42.648;23.370;2023-03-19T12:24:41;9.35;;;6.45;;
24873;SDS011;12945;42.648;23.370;2023-03-19T12:27:23;13.95;;;7.00;;
24873;SDS011;12945;42.648;23.370;2023-03-19T12:35:13;11.60;;;6.80;;
24873;SDS011;12945;42.648;23.370;2023-03-19T12:37:45;10.52;;;6.45;;
24873;SDS011;12945;42.648;23.370;2023-03-19T12:40:35;10.27;;;6.30;;
24873;SDS011;12945;42.648;23.370;2023-03-19T12:43:04;11.38;;;6.35;;
24873;SDS011;12945;42.648;23.370;2023-03-19T12:45:31;10.13;;;6.10;;
24873;SDS011;12945;42.648;23.370;2023-03-19T12:48:00;11.45;;;6.32;;
24873;SDS011;12945;42.648;23.370;2023-03-19T12:50:27;12.00;;;6.80;;
24873;SDS011;12945;42.648;23.370;2023-03-19T12:52:55;10.27;;;6.18;;
24873;SDS011;12945;42.648;23.370;2023-03-19T12:55:44;11.07;;;6.43;;
24873;SDS011;12945;42.648;23.370;2023-03-19T12:58:15;12.67;;;6.20;;
24873;SDS011;12945;42.648;23.370;2023-03-19T13:00:56;12.60;;;6.70;;
24873;SDS011;12945;42.648;23.370;2023-03-19T13:05:54;8.18;;;5.07;;
24873;SDS011;12945;42.648;23.370;2023-03-19T13:08:22;11.95;;;5.38;;
24873;SDS011;12945;42.648;23.370;2023-03-19T13:10:50;9.55;;;5.03;;
24873;SDS011;12945;42.648;23.370;2023-03-19T13:15:45;10.07;;;5.20;;
24873;SDS011;12945;42.648;23.370;2023-03-19T13:18:31;8.25;;;5.13;;
24873;SDS011;12945;42.648;23.370;2023-03-19T13:21:20;12.30;;;4.88;;
24873;SDS011;12945;42.648;23.370;2023-03-19T13:23:48;7.13;;;4.70;;
24873;SDS011;12945;42.648;23.370;2023-03-19T13:26:17;7.90;;;4.93;;
24873;SDS011;12945;42.648;23.370;2023-03-19T13:28:52;9.00;;;5.03;;
24873;SDS011;12945;42.648;23.370;2023-03-19T13:31:19;9.20;;;4.72;;
24873;SDS011;12945;42.648;23.370;2023-03-19T13:34:19;7.32;;;4.75;;
24873;SDS011;12945;42.648;23.370;2023-03-19T13:36:37;10.30;;;5.05;;
24873;SDS011;12945;42.648;23.370;2023-03-19T13:39:11;12.73;;;5.78;;
24873;SDS011;12945;42.648;23.370;2023-03-19T13:49:26;9.15;;;5.57;;
24873;SDS011;12945;42.648;23.370;2023-03-19T13:51:53;11.88;;;4.65;;
24873;SDS011;12945;42.648;23.370;2023-03-19T13:54:18;8.00;;;5.07;;
24873;SDS011;12945;42.648;23.370;2023-03-19T14:01:51;11.80;;;4.25;;
24873;SDS011;12945;42.648;23.370;2023-03-19T14:04:21;11.63;;;4.55;;
24873;SDS011;12945;42.648;23.370;2023-03-19T14:06:48;6.75;;;4.28;;
24873;SDS011;12945;42.648;23.370;2023-03-19T14:12:06;6.32;;;4.25;;
24873;SDS011;12945;42.648;23.370;2023-03-19T14:14:32;13.48;;;4.68;;
24873;SDS011;12945;42.648;23.370;2023-03-19T14:16:58;5.43;;;4.03;;
24873;SDS011;12945;42.648;23.370;2023-03-19T14:19:23;8.88;;;3.88;;
24873;SDS011;12945;42.648;23.370;2023-03-19T14:24:27;17.27;;;3.85;;
24873;SDS011;12945;42.648;23.370;2023-03-19T14:26:53;6.40;;;3.33;;
24873;SDS011;12945;42.648;23.370;2023-03-19T14:29:19;5.97;;;3.45;;
24873;SDS011;12945;42.648;23.370;2023-03-19T14:31:50;8.50;;;3.58;;
24873;SDS011;12945;42.648;23.370;2023-03-19T14:39:38;6.55;;;3.38;;
24873;SDS011;12945;42.648;23.370;2023-03-19T14:57:35;7.40;;;3.10;;
24873;SDS011;12945;42.648;23.370;2023-03-19T15:00:02;6.28;;;3.53;;
24873;SDS011;12945;42.648;23.370;2023-03-19T15:02:40;4.67;;;3.23;;
24873;SDS011;12945;42.648;23.370;2023-03-19T15:05:08;6.38;;;3.53;;
24873;SDS011;12945;42.648;23.370;2023-03-19T15:07:35;11.23;;;3.72;;
24873;SDS011;12945;42.648;23.370;2023-03-19T15:10:03;6.68;;;4.00;;
24873;SDS011;12945;42.648;23.370;2023-03-19T15:17:39;9.27;;;4.05;;
24873;SDS011;12945;42.648;23.370;2023-03-19T15:21:05;9.40;;;5.10;;
24873;SDS011;12945;42.648;23.370;2023-03-19T15:22:59;5.10;;;3.60;;
24873;SDS011;12945;42.648;23.370;2023-03-19T15:25:25;7.15;;;4.13;;
24873;SDS011;12945;42.648;23.370;2023-03-19T15:28:04;11.93;;;7.22;;
24873;SDS011;12945;42.648;23.370;2023-03-19T15:30:30;8.25;;;3.60;;
24873;SDS011;12945;42.648;23.370;2023-03-19T15:32:55;6.20;;;3.42;;
24873;SDS011;12945;42.648;23.370;2023-03-19T15:35:22;8.45;;;3.67;;
24873;SDS011;12945;42.648;23.370;2023-03-19T15:37:50;6.90;;;3.75;;
24873;SDS011;12945;42.648;23.370;2023-03-19T15:40:17;7.68;;;3.90;;
24873;SDS011;12945;42.648;23.370;2023-03-19T15:42:44;9.65;;;3.90;;
24873;SDS011;12945;42.648;23.370;2023-03-19T15:45:11;7.80;;;4.25;;
24873;SDS011;12945;42.648;23.370;2023-03-19T15:47:38;8.82;;;3.90;;
24873;SDS011;12945;42.648;23.370;2023-03-19T15:50:05;5.97;;;4.07;;
24873;SDS011;12945;42.648;23.370;2023-03-19T15:52:34;7.88;;;4.47;;
24873;SDS011;12945;42.648;23.370;2023-03-19T15:55:00;9.98;;;4.43;;
24873;SDS011;12945;42.648;23.370;2023-03-19T15:57:26;10.02;;;4.07;;
24873;SDS011;12945;42.648;23.370;2023-03-19T15:59:55;14.90;;;4.75;;